sensor_id;sensor_type;location;lat;lon;timestamp;P1;durP1;ratioP1;P2;durP2;ratioP2
4553;SDS011;2289;48.316;15.174;2023-07-02T00:00:44;7.37;;;5.17;;
4553;SDS011;2289;48.316;15.174;2023-07-02T00:03:13;6.43;;;4.90;;
4553;SDS011;2289;48.316;15.174;2023-07-02T00:05:42;6.63;;;5.80;;
4553;SDS011;2289;48.316;15.174;2023-07-02T00:08:11;4.90;;;4.40;;
4553;SDS011;2289;48.316;15.174;2023-07-02T00:10:40;5.07;;;4.57;;
4553;SDS011;2289;48.316;15.174;2023-07-02T00:13:09;6.80;;;4.20;;
4553;SDS011;2289;48.316;15.174;2023-07-02T00:15:40;7.70;;;4.93;;
4553;SDS011;2289;48.316;15.174;2023-07-02T00:18:11;5.50;;;5.00;;
4553;SDS011;2289;48.316;15.174;2023-07-02T00:20:43;6.80;;;5.20;;
4553;SDS011;2289;48.316;15.174;2023-07-02T00:23:13;5.17;;;4.63;;
4553;SDS011;2289;48.316;15.174;2023-07-02T00:25:43;5.03;;;4.57;;
4553;SDS011;2289;48.316;15.174;2023-07-02T00:28:12;9.13;;;5.50;;
4553;SDS011;2289;48.316;15.174;2023-07-02T00:30:43;6.97;;;4.43;;
4553;SDS011;2289;48.316;15.174;2023-07-02T00:33:12;19.50;;;4.70;;
4553;SDS011;2289;48.316;15.174;2023-07-02T00:35:41;7.50;;;5.60;;
4553;SDS011;2289;48.316;15.174;2023-07-02T00:38:10;6.10;;;5.07;;
4553;SDS011;2289;48.316;15.174;2023-07-02T00:40:39;12.73;;;6.13;;
4553;SDS011;2289;48.316;15.174;2023-07-02T00:43:08;7.50;;;4.63;;
4553;SDS011;2289;48.316;15.174;2023-07-02T00:45:39;5.97;;;4.53;;
4553;SDS011;2289;48.316;15.174;2023-07-02T00:48:10;6.20;;;5.00;;
4553;SDS011;2289;48.316;15.174;2023-07-02T00:50:39;7.40;;;4.60;;
4553;SDS011;2289;48.316;15.174;2023-07-02T00:53:09;6.60;;;4.97;;
4553;SDS011;2289;48.316;15.174;2023-07-02T00:55:37;6.27;;;5.00;;
4553;SDS011;2289;48.316;15.174;2023-07-02T00:58:06;7.30;;;5.73;;
4553;SDS011;2289;48.316;15.174;2023-07-02T01:00:36;9.33;;;4.90;;
4553;SDS011;2289;48.316;15.174;2023-07-02T01:03:06;8.30;;;6.10;;
4553;SDS011;2289;48.316;15.174;2023-07-02T01:05:36;5.37;;;4.87;;
4553;SDS011;2289;48.316;15.174;2023-07-02T01:08:05;7.23;;;4.97;;
4553;SDS011;2289;48.316;15.174;2023-07-02T01:10:35;5.93;;;5.43;;
4553;SDS011;2289;48.316;15.174;2023-07-02T01:13:04;5.47;;;4.80;;
4553;SDS011;2289;48.316;15.174;2023-07-02T01:15:34;7.20;;;5.77;;
4553;SDS011;2289;48.316;15.174;2023-07-02T01:18:06;8.97;;;5.90;;
4553;SDS011;2289;48.316;15.174;2023-07-02T01:20:37;5.50;;;4.90;;
4553;SDS011;2289;48.316;15.174;2023-07-02T01:23:05;9.47;;;5.30;;
4553;SDS011;2289;48.316;15.174;2023-07-02T01:25:34;9.30;;;4.80;;
4553;SDS011;2289;48.316;15.174;2023-07-02T01:28:04;6.73;;;4.63;;
4553;SDS011;2289;48.316;15.174;2023-07-02T01:30:33;5.60;;;4.73;;
4553;SDS011;2289;48.316;15.174;2023-07-02T01:33:08;7.93;;;4.83;;
4553;SDS011;2289;48.316;15.174;2023-07-02T01:35:39;7.43;;;5.97;;
4553;SDS011;2289;48.316;15.174;2023-07-02T01:38:11;7.13;;;4.93;;
4553;SDS011;2289;48.316;15.174;2023-07-02T01:40:41;5.60;;;4.90;;
4553;SDS011;2289;48.316;15.174;2023-07-02T01:43:10;7.00;;;6.03;;
4553;SDS011;2289;48.316;15.174;2023-07-02T01:45:40;5.70;;;4.83;;
4553;SDS011;2289;48.316;15.174;2023-07-02T01:48:10;5.20;;;4.70;;
4553;SDS011;2289;48.316;15.174;2023-07-02T01:50:40;8.50;;;5.13;;
4553;SDS011;2289;48.316;15.174;2023-07-02T01:53:09;7.37;;;4.57;;
4553;SDS011;2289;48.316;15.174;2023-07-02T01:55:38;4.80;;;3.70;;
4553;SDS011;2289;48.316;15.174;2023-07-02T01:58:07;5.40;;;4.80;;
4553;SDS011;2289;48.316;15.174;2023-07-02T02:00:37;5.43;;;4.80;;
4553;SDS011;2289;48.316;15.174;2023-07-02T02:03:06;8.63;;;5.13;;
4553;SDS011;2289;48.316;15.174;2023-07-02T02:05:35;8.63;;;4.33;;
4553;SDS011;2289;48.316;15.174;2023-07-02T02:08:06;5.30;;;4.53;;
4553;SDS011;2289;48.316;15.174;2023-07-02T02:10:35;8.20;;;5.13;;
4553;SDS011;2289;48.316;15.174;2023-07-02T02:13:03;6.40;;;4.10;;
4553;SDS011;2289;48.316;15.174;2023-07-02T02:15:33;12.87;;;5.00;;
4553;SDS011;2289;48.316;15.174;2023-07-02T02:18:02;5.20;;;3.90;;
4553;SDS011;2289;48.316;15.174;2023-07-02T02:20:31;7.40;;;5.30;;
4553;SDS011;2289;48.316;15.174;2023-07-02T02:22:59;10.63;;;5.33;;
4553;SDS011;2289;48.316;15.174;2023-07-02T02:25:30;6.23;;;5.57;;
4553;SDS011;2289;48.316;15.174;2023-07-02T02:27:59;7.70;;;5.30;;
4553;SDS011;2289;48.316;15.174;2023-07-02T02:30:28;11.00;;;5.07;;
4553;SDS011;2289;48.316;15.174;2023-07-02T02:32:57;7.10;;;5.43;;
4553;SDS011;2289;48.316;15.174;2023-07-02T02:35:26;6.13;;;4.97;;
4553;SDS011;2289;48.316;15.174;2023-07-02T02:37:54;6.47;;;5.40;;
4553;SDS011;2289;48.316;15.174;2023-07-02T02:40:23;8.87;;;6.20;;
4553;SDS011;2289;48.316;15.174;2023-07-02T02:42:54;10.50;;;6.70;;
4553;SDS011;2289;48.316;15.174;2023-07-02T02:45:22;14.20;;;6.70;;
4553;SDS011;2289;48.316;15.174;2023-07-02T02:47:51;9.50;;;6.63;;
4553;SDS011;2289;48.316;15.174;2023-07-02T02:50:20;9.03;;;7.00;;
4553;SDS011;2289;48.316;15.174;2023-07-02T02:52:49;9.57;;;7.07;;
4553;SDS011;2289;48.316;15.174;2023-07-02T02:55:18;9.40;;;6.90;;
4553;SDS011;2289;48.316;15.174;2023-07-02T02:57:47;9.13;;;7.20;;
4553;SDS011;2289;48.316;15.174;2023-07-02T03:00:17;8.63;;;6.70;;
4553;SDS011;2289;48.316;15.174;2023-07-02T03:02:46;11.50;;;6.63;;
4553;SDS011;2289;48.316;15.174;2023-07-02T03:05:15;8.50;;;6.10;;
4553;SDS011;2289;48.316;15.174;2023-07-02T03:07:44;9.73;;;5.77;;
4553;SDS011;2289;48.316;15.174;2023-07-02T03:10:12;10.30;;;6.80;;
4553;SDS011;2289;48.316;15.174;2023-07-02T03:12:41;9.13;;;5.33;;
4553;SDS011;2289;48.316;15.174;2023-07-02T03:15:10;11.20;;;6.20;;
4553;SDS011;2289;48.316;15.174;2023-07-02T03:17:40;15.40;;;5.80;;
4553;SDS011;2289;48.316;15.174;2023-07-02T03:20:10;8.83;;;6.20;;
4553;SDS011;2289;48.316;15.174;2023-07-02T03:22:39;6.80;;;6.10;;
4553;SDS011;2289;48.316;15.174;2023-07-02T03:25:08;7.53;;;6.20;;
4553;SDS011;2289;48.316;15.174;2023-07-02T03:27:37;6.90;;;4.57;;
4553;SDS011;2289;48.316;15.174;2023-07-02T03:30:06;5.97;;;5.47;;
4553;SDS011;2289;48.316;15.174;2023-07-02T03:32:36;6.33;;;5.13;;
4553;SDS011;2289;48.316;15.174;2023-07-02T03:35:07;6.40;;;5.80;;
4553;SDS011;2289;48.316;15.174;2023-07-02T03:37:36;8.90;;;4.60;;
4553;SDS011;2289;48.316;15.174;2023-07-02T03:40:05;6.27;;;5.17;;
4553;SDS011;2289;48.316;15.174;2023-07-02T03:42:35;6.90;;;5.93;;
4553;SDS011;2289;48.316;15.174;2023-07-02T03:45:04;7.20;;;5.57;;
4553;SDS011;2289;48.316;15.174;2023-07-02T03:47:33;6.83;;;5.57;;
4553;SDS011;2289;48.316;15.174;2023-07-02T03:50:02;7.67;;;6.17;;
4553;SDS011;2289;48.316;15.174;2023-07-02T03:52:33;5.97;;;5.47;;
4553;SDS011;2289;48.316;15.174;2023-07-02T03:55:02;7.17;;;6.23;;
4553;SDS011;2289;48.316;15.174;2023-07-02T03:57:31;8.47;;;7.07;;
4553;SDS011;2289;48.316;15.174;2023-07-02T04:00:00;8.83;;;7.43;;
4553;SDS011;2289;48.316;15.174;2023-07-02T04:02:32;11.60;;;6.20;;
4553;SDS011;2289;48.316;15.174;2023-07-02T04:05:01;7.67;;;6.90;;
4553;SDS011;2289;48.316;15.174;2023-07-02T04:07:30;8.43;;;7.53;;
4553;SDS011;2289;48.316;15.174;2023-07-02T04:10:00;8.47;;;7.57;;
4553;SDS011;2289;48.316;15.174;2023-07-02T04:12:29;8.90;;;7.20;;
4553;SDS011;2289;48.316;15.174;2023-07-02T04:14:59;7.70;;;6.70;;
4553;SDS011;2289;48.316;15.174;2023-07-02T04:17:28;8.60;;;7.80;;
4553;SDS011;2289;48.316;15.174;2023-07-02T04:19:57;7.07;;;6.47;;
4553;SDS011;2289;48.316;15.174;2023-07-02T04:22:30;9.40;;;7.30;;
4553;SDS011;2289;48.316;15.174;2023-07-02T04:25:00;7.60;;;6.63;;
4553;SDS011;2289;48.316;15.174;2023-07-02T04:27:47;8.33;;;6.47;;
4553;SDS011;2289;48.316;15.174;2023-07-02T04:30:18;10.30;;;6.90;;
4553;SDS011;2289;48.316;15.174;2023-07-02T04:32:47;5.83;;;5.43;;
4553;SDS011;2289;48.316;15.174;2023-07-02T04:35:15;6.10;;;5.50;;
4553;SDS011;2289;48.316;15.174;2023-07-02T04:37:44;5.90;;;5.30;;
4553;SDS011;2289;48.316;15.174;2023-07-02T04:40:15;11.63;;;5.50;;
4553;SDS011;2289;48.316;15.174;2023-07-02T04:42:44;7.60;;;5.70;;
4553;SDS011;2289;48.316;15.174;2023-07-02T04:45:14;11.30;;;5.20;;
4553;SDS011;2289;48.316;15.174;2023-07-02T04:47:44;6.20;;;5.30;;
4553;SDS011;2289;48.316;15.174;2023-07-02T04:50:14;7.00;;;5.13;;
4553;SDS011;2289;48.316;15.174;2023-07-02T04:52:44;4.83;;;4.33;;
4553;SDS011;2289;48.316;15.174;2023-07-02T04:55:13;4.77;;;4.37;;
4553;SDS011;2289;48.316;15.174;2023-07-02T04:57:44;5.73;;;4.20;;
4553;SDS011;2289;48.316;15.174;2023-07-02T05:00:13;4.13;;;3.60;;
4553;SDS011;2289;48.316;15.174;2023-07-02T05:02:42;5.80;;;4.40;;
4553;SDS011;2289;48.316;15.174;2023-07-02T05:05:11;4.30;;;3.90;;
4553;SDS011;2289;48.316;15.174;2023-07-02T05:07:40;4.87;;;4.27;;
4553;SDS011;2289;48.316;15.174;2023-07-02T05:10:09;6.90;;;3.97;;
4553;SDS011;2289;48.316;15.174;2023-07-02T05:12:40;3.93;;;3.63;;
4553;SDS011;2289;48.316;15.174;2023-07-02T05:15:09;3.93;;;3.63;;
4553;SDS011;2289;48.316;15.174;2023-07-02T05:17:39;5.73;;;3.83;;
4553;SDS011;2289;48.316;15.174;2023-07-02T05:20:08;10.97;;;4.90;;
4553;SDS011;2289;48.316;15.174;2023-07-02T05:22:38;4.27;;;3.97;;
4553;SDS011;2289;48.316;15.174;2023-07-02T05:25:07;4.10;;;3.80;;
4553;SDS011;2289;48.316;15.174;2023-07-02T05:27:37;4.20;;;3.83;;
4553;SDS011;2289;48.316;15.174;2023-07-02T05:30:08;4.90;;;4.07;;
4553;SDS011;2289;48.316;15.174;2023-07-02T05:32:37;6.50;;;5.23;;
4553;SDS011;2289;48.316;15.174;2023-07-02T05:35:06;5.57;;;4.20;;
4553;SDS011;2289;48.316;15.174;2023-07-02T05:37:35;4.40;;;4.00;;
4553;SDS011;2289;48.316;15.174;2023-07-02T05:40:05;4.83;;;4.43;;
4553;SDS011;2289;48.316;15.174;2023-07-02T05:42:35;5.20;;;4.63;;
4553;SDS011;2289;48.316;15.174;2023-07-02T05:45:05;5.57;;;4.57;;
4553;SDS011;2289;48.316;15.174;2023-07-02T05:47:37;3.90;;;3.60;;
4553;SDS011;2289;48.316;15.174;2023-07-02T05:50:07;5.40;;;3.80;;
4553;SDS011;2289;48.316;15.174;2023-07-02T05:52:38;6.30;;;5.03;;
4553;SDS011;2289;48.316;15.174;2023-07-02T05:55:07;8.10;;;4.00;;
4553;SDS011;2289;48.316;15.174;2023-07-02T05:57:38;3.10;;;2.80;;
4553;SDS011;2289;48.316;15.174;2023-07-02T06:00:07;3.00;;;2.47;;
4553;SDS011;2289;48.316;15.174;2023-07-02T06:02:38;2.87;;;2.57;;
4553;SDS011;2289;48.316;15.174;2023-07-02T06:05:07;2.87;;;2.60;;
4553;SDS011;2289;48.316;15.174;2023-07-02T06:07:37;2.50;;;2.30;;
4553;SDS011;2289;48.316;15.174;2023-07-02T06:10:06;3.10;;;2.53;;
4553;SDS011;2289;48.316;15.174;2023-07-02T06:12:35;3.37;;;3.07;;
4553;SDS011;2289;48.316;15.174;2023-07-02T06:15:04;3.10;;;2.80;;
4553;SDS011;2289;48.316;15.174;2023-07-02T06:17:34;3.60;;;2.87;;
4553;SDS011;2289;48.316;15.174;2023-07-02T06:20:05;2.83;;;2.60;;
4553;SDS011;2289;48.316;15.174;2023-07-02T06:22:34;5.03;;;3.13;;
4553;SDS011;2289;48.316;15.174;2023-07-02T06:25:03;2.93;;;2.57;;
4553;SDS011;2289;48.316;15.174;2023-07-02T06:27:33;6.20;;;2.53;;
4553;SDS011;2289;48.316;15.174;2023-07-02T06:30:02;6.83;;;3.27;;
4553;SDS011;2289;48.316;15.174;2023-07-02T06:32:31;6.23;;;3.20;;
4553;SDS011;2289;48.316;15.174;2023-07-02T06:34:59;4.00;;;3.60;;
4553;SDS011;2289;48.316;15.174;2023-07-02T06:37:30;3.30;;;2.70;;
4553;SDS011;2289;48.316;15.174;2023-07-02T06:40:01;4.07;;;3.20;;
4553;SDS011;2289;48.316;15.174;2023-07-02T06:42:30;4.37;;;3.10;;
4553;SDS011;2289;48.316;15.174;2023-07-02T06:45:00;14.20;;;4.00;;
4553;SDS011;2289;48.316;15.174;2023-07-02T06:47:28;3.13;;;2.93;;
4553;SDS011;2289;48.316;15.174;2023-07-02T06:49:57;3.83;;;3.17;;
4553;SDS011;2289;48.316;15.174;2023-07-02T06:52:26;5.70;;;3.30;;
4553;SDS011;2289;48.316;15.174;2023-07-02T06:54:56;3.70;;;3.33;;
4553;SDS011;2289;48.316;15.174;2023-07-02T06:57:25;3.43;;;3.13;;
4553;SDS011;2289;48.316;15.174;2023-07-02T06:59:57;3.40;;;2.80;;
4553;SDS011;2289;48.316;15.174;2023-07-02T07:02:27;9.23;;;3.30;;
4553;SDS011;2289;48.316;15.174;2023-07-02T07:04:57;4.47;;;4.07;;
4553;SDS011;2289;48.316;15.174;2023-07-02T07:07:25;3.97;;;3.57;;
4553;SDS011;2289;48.316;15.174;2023-07-02T07:09:55;3.57;;;3.27;;
4553;SDS011;2289;48.316;15.174;2023-07-02T07:12:24;2.93;;;2.73;;
4553;SDS011;2289;48.316;15.174;2023-07-02T07:14:54;3.20;;;2.90;;
4553;SDS011;2289;48.316;15.174;2023-07-02T07:17:23;2.57;;;2.37;;
4553;SDS011;2289;48.316;15.174;2023-07-02T07:19:52;3.23;;;2.93;;
4553;SDS011;2289;48.316;15.174;2023-07-02T07:22:21;3.60;;;2.73;;
4553;SDS011;2289;48.316;15.174;2023-07-02T07:24:50;4.87;;;3.20;;
4553;SDS011;2289;48.316;15.174;2023-07-02T07:27:20;3.53;;;3.23;;
4553;SDS011;2289;48.316;15.174;2023-07-02T07:29:49;3.33;;;3.03;;
4553;SDS011;2289;48.316;15.174;2023-07-02T07:32:19;3.73;;;3.30;;
4553;SDS011;2289;48.316;15.174;2023-07-02T07:34:48;3.80;;;3.17;;
4553;SDS011;2289;48.316;15.174;2023-07-02T07:37:17;3.77;;;3.47;;
4553;SDS011;2289;48.316;15.174;2023-07-02T07:39:46;4.37;;;3.57;;
4553;SDS011;2289;48.316;15.174;2023-07-02T07:42:15;3.43;;;3.13;;
4553;SDS011;2289;48.316;15.174;2023-07-02T07:44:46;4.50;;;3.50;;
4553;SDS011;2289;48.316;15.174;2023-07-02T07:47:14;3.90;;;3.00;;
4553;SDS011;2289;48.316;15.174;2023-07-02T07:49:43;4.03;;;3.53;;
4553;SDS011;2289;48.316;15.174;2023-07-02T07:52:13;3.33;;;3.03;;
4553;SDS011;2289;48.316;15.174;2023-07-02T07:54:42;3.47;;;3.17;;
4553;SDS011;2289;48.316;15.174;2023-07-02T07:57:11;3.60;;;3.17;;
4553;SDS011;2289;48.316;15.174;2023-07-02T07:59:40;3.80;;;3.40;;
4553;SDS011;2289;48.316;15.174;2023-07-02T08:02:10;3.23;;;2.97;;
4553;SDS011;2289;48.316;15.174;2023-07-02T08:04:39;4.23;;;2.90;;
4553;SDS011;2289;48.316;15.174;2023-07-02T08:07:09;4.37;;;3.23;;
4553;SDS011;2289;48.316;15.174;2023-07-02T08:09:38;7.07;;;3.43;;
4553;SDS011;2289;48.316;15.174;2023-07-02T08:12:07;5.80;;;3.10;;
4553;SDS011;2289;48.316;15.174;2023-07-02T08:14:38;3.60;;;3.10;;
4553;SDS011;2289;48.316;15.174;2023-07-02T08:17:08;4.20;;;3.43;;
4553;SDS011;2289;48.316;15.174;2023-07-02T08:19:38;3.83;;;3.50;;
4553;SDS011;2289;48.316;15.174;2023-07-02T08:22:07;5.33;;;4.17;;
4553;SDS011;2289;48.316;15.174;2023-07-02T08:24:36;4.73;;;3.10;;
4553;SDS011;2289;48.316;15.174;2023-07-02T08:27:08;3.57;;;3.27;;
4553;SDS011;2289;48.316;15.174;2023-07-02T08:29:37;5.10;;;3.30;;
4553;SDS011;2289;48.316;15.174;2023-07-02T08:32:06;3.50;;;3.20;;
4553;SDS011;2289;48.316;15.174;2023-07-02T08:34:35;4.20;;;3.50;;
4553;SDS011;2289;48.316;15.174;2023-07-02T08:37:06;3.43;;;3.13;;
4553;SDS011;2289;48.316;15.174;2023-07-02T08:39:35;6.43;;;3.43;;
4553;SDS011;2289;48.316;15.174;2023-07-02T08:42:07;5.37;;;3.20;;
4553;SDS011;2289;48.316;15.174;2023-07-02T08:44:36;3.70;;;3.33;;
4553;SDS011;2289;48.316;15.174;2023-07-02T08:47:05;3.23;;;2.90;;
4553;SDS011;2289;48.316;15.174;2023-07-02T08:49:34;3.73;;;2.97;;
4553;SDS011;2289;48.316;15.174;2023-07-02T08:52:03;3.77;;;3.47;;
4553;SDS011;2289;48.316;15.174;2023-07-02T08:54:34;3.73;;;2.60;;
4553;SDS011;2289;48.316;15.174;2023-07-02T08:57:03;4.70;;;3.60;;
4553;SDS011;2289;48.316;15.174;2023-07-02T08:59:33;3.50;;;3.23;;
4553;SDS011;2289;48.316;15.174;2023-07-02T09:02:04;3.87;;;3.57;;
4553;SDS011;2289;48.316;15.174;2023-07-02T09:04:33;3.63;;;3.17;;
4553;SDS011;2289;48.316;15.174;2023-07-02T09:07:03;3.73;;;3.43;;
4553;SDS011;2289;48.316;15.174;2023-07-02T09:09:43;4.50;;;3.27;;
4553;SDS011;2289;48.316;15.174;2023-07-02T09:12:23;4.60;;;4.20;;
4553;SDS011;2289;48.316;15.174;2023-07-02T09:14:56;5.10;;;3.73;;
4553;SDS011;2289;48.316;15.174;2023-07-02T09:17:28;4.07;;;3.67;;
4553;SDS011;2289;48.316;15.174;2023-07-02T09:19:58;3.93;;;3.63;;
4553;SDS011;2289;48.316;15.174;2023-07-02T09:22:29;3.93;;;3.53;;
4553;SDS011;2289;48.316;15.174;2023-07-02T09:24:59;5.10;;;4.03;;
4553;SDS011;2289;48.316;15.174;2023-07-02T09:27:33;4.63;;;3.13;;
4553;SDS011;2289;48.316;15.174;2023-07-02T09:30:06;4.50;;;4.10;;
4553;SDS011;2289;48.316;15.174;2023-07-02T09:32:37;6.90;;;4.17;;
4553;SDS011;2289;48.316;15.174;2023-07-02T09:35:06;4.83;;;3.87;;
4553;SDS011;2289;48.316;15.174;2023-07-02T09:37:35;3.40;;;3.10;;
4553;SDS011;2289;48.316;15.174;2023-07-02T09:40:07;3.80;;;3.50;;
4553;SDS011;2289;48.316;15.174;2023-07-02T09:42:37;4.70;;;3.60;;
4553;SDS011;2289;48.316;15.174;2023-07-02T09:45:10;3.57;;;3.23;;
4553;SDS011;2289;48.316;15.174;2023-07-02T09:47:41;5.23;;;3.33;;
4553;SDS011;2289;48.316;15.174;2023-07-02T09:50:12;3.97;;;2.97;;
4553;SDS011;2289;48.316;15.174;2023-07-02T09:52:44;5.70;;;2.97;;
4553;SDS011;2289;48.316;15.174;2023-07-02T09:55:16;4.03;;;3.43;;
4553;SDS011;2289;48.316;15.174;2023-07-02T09:57:45;3.60;;;2.97;;
4553;SDS011;2289;48.316;15.174;2023-07-02T10:00:15;6.00;;;2.80;;
4553;SDS011;2289;48.316;15.174;2023-07-02T10:02:47;5.53;;;3.37;;
4553;SDS011;2289;48.316;15.174;2023-07-02T10:05:27;3.40;;;3.10;;
4553;SDS011;2289;48.316;15.174;2023-07-02T10:07:58;5.77;;;4.00;;
4553;SDS011;2289;48.316;15.174;2023-07-02T10:10:30;4.83;;;3.80;;
4553;SDS011;2289;48.316;15.174;2023-07-02T10:13:00;4.33;;;2.63;;
4553;SDS011;2289;48.316;15.174;2023-07-02T10:15:30;3.00;;;2.70;;
4553;SDS011;2289;48.316;15.174;2023-07-02T10:18:05;2.93;;;2.73;;
4553;SDS011;2289;48.316;15.174;2023-07-02T10:20:35;4.63;;;2.80;;
4553;SDS011;2289;48.316;15.174;2023-07-02T10:23:07;8.63;;;3.00;;
4553;SDS011;2289;48.316;15.174;2023-07-02T10:25:38;3.57;;;3.27;;
4553;SDS011;2289;48.316;15.174;2023-07-02T10:28:14;5.63;;;2.87;;
4553;SDS011;2289;48.316;15.174;2023-07-02T10:30:43;4.97;;;3.30;;
4553;SDS011;2289;48.316;15.174;2023-07-02T10:36:17;2.90;;;2.60;;
4553;SDS011;2289;48.316;15.174;2023-07-02T10:38:48;6.23;;;2.87;;
4553;SDS011;2289;48.316;15.174;2023-07-02T10:41:26;4.53;;;3.10;;
4553;SDS011;2289;48.316;15.174;2023-07-02T10:44:04;3.00;;;2.73;;
4553;SDS011;2289;48.316;15.174;2023-07-02T10:46:42;3.50;;;3.20;;
4553;SDS011;2289;48.316;15.174;2023-07-02T10:49:12;3.33;;;3.00;;
4553;SDS011;2289;48.316;15.174;2023-07-02T10:51:41;5.30;;;3.27;;
4553;SDS011;2289;48.316;15.174;2023-07-02T10:54:46;6.77;;;2.60;;
4553;SDS011;2289;48.316;15.174;2023-07-02T10:57:19;2.90;;;2.67;;
4553;SDS011;2289;48.316;15.174;2023-07-02T10:59:48;6.50;;;3.10;;
4553;SDS011;2289;48.316;15.174;2023-07-02T11:02:18;4.53;;;3.30;;
4553;SDS011;2289;48.316;15.174;2023-07-02T11:04:48;3.63;;;3.03;;
4553;SDS011;2289;48.316;15.174;2023-07-02T11:07:22;4.80;;;3.20;;
4553;SDS011;2289;48.316;15.174;2023-07-02T11:09:53;5.60;;;2.93;;
4553;SDS011;2289;48.316;15.174;2023-07-02T11:12:27;4.43;;;3.20;;
4553;SDS011;2289;48.316;15.174;2023-07-02T11:15:06;3.30;;;2.90;;
4553;SDS011;2289;48.316;15.174;2023-07-02T11:17:36;6.47;;;3.33;;
4553;SDS011;2289;48.316;15.174;2023-07-02T11:20:08;4.27;;;3.40;;
4553;SDS011;2289;48.316;15.174;2023-07-02T11:22:40;4.93;;;2.63;;
4553;SDS011;2289;48.316;15.174;2023-07-02T11:25:12;4.63;;;3.03;;
4553;SDS011;2289;48.316;15.174;2023-07-02T11:27:41;4.00;;;3.10;;
4553;SDS011;2289;48.316;15.174;2023-07-02T11:30:11;3.07;;;2.87;;
4553;SDS011;2289;48.316;15.174;2023-07-02T11:32:48;3.50;;;3.20;;
4553;SDS011;2289;48.316;15.174;2023-07-02T11:35:20;6.60;;;3.00;;
4553;SDS011;2289;48.316;15.174;2023-07-02T11:37:49;4.37;;;2.50;;
4553;SDS011;2289;48.316;15.174;2023-07-02T11:40:21;4.80;;;3.13;;
4553;SDS011;2289;48.316;15.174;2023-07-02T11:42:50;2.60;;;2.40;;
4553;SDS011;2289;48.316;15.174;2023-07-02T11:45:20;14.90;;;3.73;;
4553;SDS011;2289;48.316;15.174;2023-07-02T11:47:49;3.93;;;2.87;;
4553;SDS011;2289;48.316;15.174;2023-07-02T11:50:18;4.17;;;3.70;;
4553;SDS011;2289;48.316;15.174;2023-07-02T11:52:53;4.73;;;3.00;;
4553;SDS011;2289;48.316;15.174;2023-07-02T11:55:24;4.70;;;2.73;;
4553;SDS011;2289;48.316;15.174;2023-07-02T11:57:53;4.57;;;2.83;;
4553;SDS011;2289;48.316;15.174;2023-07-02T12:00:23;3.87;;;2.40;;
4553;SDS011;2289;48.316;15.174;2023-07-02T12:02:53;9.10;;;2.70;;
4553;SDS011;2289;48.316;15.174;2023-07-02T12:05:22;3.80;;;2.97;;
4553;SDS011;2289;48.316;15.174;2023-07-02T12:07:52;2.90;;;2.70;;
4553;SDS011;2289;48.316;15.174;2023-07-02T12:10:21;3.03;;;2.73;;
4553;SDS011;2289;48.316;15.174;2023-07-02T12:13:00;4.17;;;2.63;;
4553;SDS011;2289;48.316;15.174;2023-07-02T12:15:29;3.57;;;2.60;;
4553;SDS011;2289;48.316;15.174;2023-07-02T12:17:58;3.00;;;2.70;;
4553;SDS011;2289;48.316;15.174;2023-07-02T12:20:28;4.13;;;3.17;;
4553;SDS011;2289;48.316;15.174;2023-07-02T12:22:57;2.40;;;2.20;;
4553;SDS011;2289;48.316;15.174;2023-07-02T12:25:27;3.20;;;2.40;;
4553;SDS011;2289;48.316;15.174;2023-07-02T12:28:03;5.23;;;2.60;;
4553;SDS011;2289;48.316;15.174;2023-07-02T12:30:33;5.57;;;2.90;;
4553;SDS011;2289;48.316;15.174;2023-07-02T12:33:03;1.93;;;1.77;;
4553;SDS011;2289;48.316;15.174;2023-07-02T12:35:32;2.80;;;2.60;;
4553;SDS011;2289;48.316;15.174;2023-07-02T12:38:02;3.90;;;3.50;;
4553;SDS011;2289;48.316;15.174;2023-07-02T12:40:31;3.33;;;3.03;;
4553;SDS011;2289;48.316;15.174;2023-07-02T12:43:01;2.73;;;2.50;;
4553;SDS011;2289;48.316;15.174;2023-07-02T12:45:31;3.17;;;2.77;;
4553;SDS011;2289;48.316;15.174;2023-07-02T12:48:01;3.23;;;2.93;;
4553;SDS011;2289;48.316;15.174;2023-07-02T12:50:30;3.90;;;3.03;;
4553;SDS011;2289;48.316;15.174;2023-07-02T12:53:02;3.83;;;3.20;;
4553;SDS011;2289;48.316;15.174;2023-07-02T12:55:32;3.47;;;2.90;;
4553;SDS011;2289;48.316;15.174;2023-07-02T12:58:03;6.13;;;3.23;;
4553;SDS011;2289;48.316;15.174;2023-07-02T13:00:32;3.10;;;2.87;;
4553;SDS011;2289;48.316;15.174;2023-07-02T13:03:01;3.07;;;2.67;;
4553;SDS011;2289;48.316;15.174;2023-07-02T13:05:32;4.20;;;3.37;;
4553;SDS011;2289;48.316;15.174;2023-07-02T13:08:01;7.33;;;2.60;;
4553;SDS011;2289;48.316;15.174;2023-07-02T13:10:30;7.43;;;3.17;;
4553;SDS011;2289;48.316;15.174;2023-07-02T13:13:05;4.20;;;2.20;;
4553;SDS011;2289;48.316;15.174;2023-07-02T13:15:48;2.70;;;2.30;;
4553;SDS011;2289;48.316;15.174;2023-07-02T13:18:18;3.93;;;2.43;;
4553;SDS011;2289;48.316;15.174;2023-07-02T13:20:47;2.60;;;2.40;;
4553;SDS011;2289;48.316;15.174;2023-07-02T13:23:16;4.80;;;3.40;;
4553;SDS011;2289;48.316;15.174;2023-07-02T13:25:45;2.90;;;2.57;;
4553;SDS011;2289;48.316;15.174;2023-07-02T13:28:16;5.53;;;2.87;;
4553;SDS011;2289;48.316;15.174;2023-07-02T13:30:48;2.93;;;2.00;;
4553;SDS011;2289;48.316;15.174;2023-07-02T13:33:17;6.03;;;2.63;;
4553;SDS011;2289;48.316;15.174;2023-07-02T13:35:47;2.57;;;2.37;;
4553;SDS011;2289;48.316;15.174;2023-07-02T13:38:16;3.50;;;2.00;;
4553;SDS011;2289;48.316;15.174;2023-07-02T13:40:46;2.00;;;1.87;;
4553;SDS011;2289;48.316;15.174;2023-07-02T13:43:17;4.23;;;3.47;;
4553;SDS011;2289;48.316;15.174;2023-07-02T13:45:46;4.17;;;2.70;;
4553;SDS011;2289;48.316;15.174;2023-07-02T13:48:16;2.10;;;2.00;;
4553;SDS011;2289;48.316;15.174;2023-07-02T13:50:45;6.57;;;4.00;;
4553;SDS011;2289;48.316;15.174;2023-07-02T13:53:14;3.83;;;2.60;;
4553;SDS011;2289;48.316;15.174;2023-07-02T13:55:42;5.00;;;3.40;;
4553;SDS011;2289;48.316;15.174;2023-07-02T13:58:11;4.73;;;2.87;;
4553;SDS011;2289;48.316;15.174;2023-07-02T14:00:52;5.80;;;2.77;;
4553;SDS011;2289;48.316;15.174;2023-07-02T14:03:21;4.37;;;2.47;;
4553;SDS011;2289;48.316;15.174;2023-07-02T14:05:50;2.87;;;2.57;;
4553;SDS011;2289;48.316;15.174;2023-07-02T14:08:19;4.10;;;2.33;;
4553;SDS011;2289;48.316;15.174;2023-07-02T14:10:48;6.30;;;2.57;;
4553;SDS011;2289;48.316;15.174;2023-07-02T14:13:18;5.53;;;2.90;;
4553;SDS011;2289;48.316;15.174;2023-07-02T14:15:47;3.57;;;2.97;;
4553;SDS011;2289;48.316;15.174;2023-07-02T14:18:18;6.20;;;2.57;;
4553;SDS011;2289;48.316;15.174;2023-07-02T14:20:47;2.40;;;2.20;;
4553;SDS011;2289;48.316;15.174;2023-07-02T14:23:16;3.00;;;2.70;;
4553;SDS011;2289;48.316;15.174;2023-07-02T14:25:44;4.27;;;2.30;;
4553;SDS011;2289;48.316;15.174;2023-07-02T14:28:14;3.47;;;2.53;;
4553;SDS011;2289;48.316;15.174;2023-07-02T14:30:44;3.97;;;2.17;;
4553;SDS011;2289;48.316;15.174;2023-07-02T14:33:15;7.60;;;3.03;;
4553;SDS011;2289;48.316;15.174;2023-07-02T14:35:45;3.00;;;2.17;;
4553;SDS011;2289;48.316;15.174;2023-07-02T14:38:15;4.17;;;3.20;;
4553;SDS011;2289;48.316;15.174;2023-07-02T14:40:44;4.70;;;2.77;;
4553;SDS011;2289;48.316;15.174;2023-07-02T14:43:13;5.13;;;3.10;;
4553;SDS011;2289;48.316;15.174;2023-07-02T14:45:46;2.93;;;2.53;;
4553;SDS011;2289;48.316;15.174;2023-07-02T14:48:19;3.03;;;2.63;;
4553;SDS011;2289;48.316;15.174;2023-07-02T14:50:50;5.90;;;2.97;;
4553;SDS011;2289;48.316;15.174;2023-07-02T14:53:22;4.87;;;3.33;;
4553;SDS011;2289;48.316;15.174;2023-07-02T14:55:53;3.20;;;2.90;;
4553;SDS011;2289;48.316;15.174;2023-07-02T14:58:22;4.63;;;3.40;;
4553;SDS011;2289;48.316;15.174;2023-07-02T15:00:52;3.83;;;3.10;;
4553;SDS011;2289;48.316;15.174;2023-07-02T15:03:23;4.00;;;3.70;;
4553;SDS011;2289;48.316;15.174;2023-07-02T15:05:53;3.70;;;2.80;;
4553;SDS011;2289;48.316;15.174;2023-07-02T15:08:22;4.80;;;3.43;;
4553;SDS011;2289;48.316;15.174;2023-07-02T15:10:52;4.37;;;2.53;;
4553;SDS011;2289;48.316;15.174;2023-07-02T15:13:22;5.23;;;3.70;;
4553;SDS011;2289;48.316;15.174;2023-07-02T15:15:51;5.07;;;3.00;;
4553;SDS011;2289;48.316;15.174;2023-07-02T15:18:20;7.23;;;3.97;;
4553;SDS011;2289;48.316;15.174;2023-07-02T15:20:49;3.77;;;3.43;;